Boyd, Iowa
Current Conditions -  °F | °C
As of 8:15 AM on Tuesday 21 Oct 2014 (Local Time) from KCCY Reporting Station
Clear Clear  
Wind Chill: 36°   Ceiling: Unl
Heat Index: 39°   Visibility: 10mi
Dew Point: 37°   Wind: 5mph
Humidity: 93%   Direction: 70°ENE
Pressure: 30.18"   Gusts: NA
Location:  43.0559°N, 92.3113°W
Report Text: KCCY 211315Z AUTO 07004KT 10SM CLR 04/03 A3018 RMK AO2
Loading
Personal Weather Stations






























Interactive Weather Map
Tropical Storm Tracking
New forecast layout! Learn more

10-Day Weather Forecast

Advertisements
Track Severe Weather on mobile